createdAt,value
2023-05-16T00:01:18.471Z,5.20
2023-05-16T00:06:11.526Z,5.00
2023-05-16T00:11:04.868Z,5.60
2023-05-16T00:15:57.961Z,5.20
2023-05-16T00:20:52.157Z,4.50
2023-05-16T00:25:46.372Z,4.70
2023-05-16T00:30:39.424Z,5.60
2023-05-16T00:35:32.348Z,5.30
2023-05-16T00:40:25.552Z,5.30
2023-05-16T00:45:19.368Z,5.90
2023-05-16T00:50:12.343Z,4.60
2023-05-16T00:55:05.851Z,6.20
2023-05-16T01:00:00.706Z,6.30
2023-05-16T01:04:53.703Z,6.00
2023-05-16T01:09:46.610Z,5.00
2023-05-16T01:14:58.258Z,6.00
2023-05-16T01:20:02.245Z,6.40
2023-05-16T01:25:27.743Z,6.30
2023-05-16T01:30:21.546Z,5.90
2023-05-16T01:35:20.119Z,5.80
2023-05-16T01:40:21.042Z,6.20
2023-05-16T01:45:24.897Z,6.90
2023-05-16T01:50:21.301Z,5.90
2023-05-16T01:55:20.227Z,6.40
2023-05-16T02:00:13.796Z,7.10
2023-05-16T02:05:09.621Z,7.00
2023-05-16T02:10:02.710Z,6.40
2023-05-16T02:14:55.513Z,7.30
2023-05-16T02:19:48.466Z,7.40
2023-05-16T02:24:41.375Z,7.40
2023-05-16T02:29:34.506Z,7.80
2023-05-16T02:34:27.507Z,6.60
2023-05-16T02:39:20.507Z,7.50
2023-05-16T02:44:17.286Z,8.10
2023-05-16T02:49:10.135Z,6.60
2023-05-16T02:54:05.181Z,7.70
2023-05-16T02:58:58.049Z,8.40
2023-05-16T03:03:51.442Z,8.20
2023-05-16T03:08:44.447Z,8.20
2023-05-16T03:13:37.286Z,8.30
2023-05-16T03:18:30.213Z,7.50
2023-05-16T03:23:23.208Z,7.80
2023-05-16T03:28:18.275Z,7.80
2023-05-16T03:33:11.127Z,7.20
2023-05-16T03:38:04.483Z,7.50
2023-05-16T03:42:57.328Z,7.80
2023-05-16T03:47:51.071Z,7.50
2023-05-16T03:52:44.084Z,7.80
2023-05-16T03:57:38.823Z,7.90
2023-05-16T04:02:31.669Z,9.00
2023-05-16T04:07:24.635Z,8.00
2023-05-16T04:12:17.446Z,8.70
2023-05-16T04:17:11.245Z,8.20
2023-05-16T04:22:04.302Z,8.70
2023-05-16T04:26:57.095Z,8.40
2023-05-16T04:31:49.916Z,8.60
2023-05-16T04:36:43.172Z,8.10
2023-05-16T04:41:36.326Z,8.30
2023-05-16T04:46:29.188Z,6.50
2023-05-16T04:51:22.230Z,7.10
2023-05-16T04:56:18.184Z,7.50
2023-05-16T05:01:11.162Z,6.90
2023-05-16T05:06:04.731Z,6.10
2023-05-16T05:10:58.066Z,7.00
2023-05-16T05:15:52.451Z,6.70
2023-05-16T05:20:45.662Z,6.20
2023-05-16T05:25:40.009Z,6.70
2023-05-16T05:30:32.858Z,7.10
2023-05-16T05:35:26.123Z,6.60
2023-05-16T05:40:19.373Z,6.90
2023-05-16T05:45:12.612Z,6.80
2023-05-16T05:50:09.422Z,6.70
2023-05-16T05:55:02.988Z,7.00
2023-05-16T05:59:55.814Z,7.10
2023-05-16T06:04:48.735Z,6.50
2023-05-16T06:09:42.745Z,7.10
2023-05-16T06:14:35.547Z,5.70
2023-05-16T06:19:28.546Z,6.80
2023-05-16T06:24:21.375Z,6.30
2023-05-16T06:29:14.173Z,5.90
2023-05-16T06:34:07.001Z,6.20
2023-05-16T06:38:59.853Z,6.20
2023-05-16T06:43:52.881Z,6.00
2023-05-16T06:48:46.074Z,5.60
2023-05-16T06:53:38.947Z,6.50
2023-05-16T06:58:31.984Z,6.50
2023-05-16T07:03:24.963Z,5.90
2023-05-16T07:08:17.938Z,6.50
2023-05-16T07:13:10.873Z,6.50
2023-05-16T07:18:04.017Z,6.50
2023-05-16T07:22:58.051Z,5.70
2023-05-16T07:27:51.189Z,5.40
2023-05-16T07:32:44.467Z,4.60
2023-05-16T07:37:38.424Z,5.60
2023-05-16T07:42:32.215Z,6.10
2023-05-16T07:47:26.042Z,6.90
2023-05-16T07:52:19.037Z,6.50
2023-05-16T07:57:12.447Z,5.80
2023-05-16T08:02:05.582Z,6.20
2023-05-16T08:06:58.427Z,5.70
2023-05-16T08:11:51.259Z,4.60
2023-05-16T08:16:44.138Z,4.80
2023-05-16T08:21:37.359Z,4.90
2023-05-16T08:26:30.798Z,4.00
2023-05-16T08:31:23.986Z,2.80
2023-05-16T08:36:19.793Z,2.60
2023-05-16T08:41:13.331Z,2.40
2023-05-16T08:46:08.846Z,2.30
2023-05-16T08:51:07.647Z,2.30
2023-05-16T08:56:02.040Z,2.40
2023-05-16T09:00:55.912Z,2.30
2023-05-16T09:05:49.180Z,2.30
2023-05-16T09:10:42.021Z,2.30
2023-05-16T09:15:35.537Z,2.70
2023-05-16T09:20:28.493Z,2.30
2023-05-16T09:25:30.375Z,2.30
2023-05-16T09:30:35.417Z,2.20
2023-05-16T09:40:25.565Z,2.70
2023-05-16T09:45:18.641Z,2.70
2023-05-16T09:50:11.818Z,2.70
2023-05-16T09:55:08.611Z,2.30
2023-05-16T10:00:05.649Z,2.50
2023-05-16T10:09:54.029Z,2.40
2023-05-16T10:14:50.543Z,2.60
2023-05-16T10:19:44.350Z,2.40
2023-05-16T10:24:49.418Z,1.90
2023-05-16T10:29:54.186Z,1.70
2023-05-16T10:34:48.346Z,1.80
2023-05-16T10:39:41.939Z,1.70
2023-05-16T10:44:35.375Z,1.80
2023-05-16T10:49:28.980Z,1.30
2023-05-16T10:54:26.611Z,1.50
2023-05-16T10:59:28.621Z,2.20
2023-05-16T11:04:21.509Z,1.40
2023-05-16T11:09:14.344Z,1.60
2023-05-16T11:14:07.537Z,1.40
2023-05-16T11:19:08.276Z,1.90
2023-05-16T11:24:30.097Z,1.70
2023-05-16T11:29:23.484Z,1.30
2023-05-16T11:34:16.434Z,1.30
2023-05-16T11:39:10.712Z,1.50
2023-05-16T11:44:03.596Z,1.50
2023-05-16T11:48:57.234Z,1.40
2023-05-16T11:53:51.133Z,1.40
2023-05-16T11:58:44.536Z,1.30
2023-05-16T12:03:39.312Z,1.50
2023-05-16T12:08:32.895Z,1.60
2023-05-16T12:13:26.645Z,1.40
2023-05-16T12:18:21.480Z,1.30
2023-05-16T12:23:16.480Z,1.70
2023-05-16T12:28:10.294Z,1.50
2023-05-16T12:33:10.586Z,1.40
2023-05-16T12:38:11.870Z,1.90
2023-05-16T12:43:04.751Z,1.60
2023-05-16T12:47:57.866Z,1.50
2023-05-16T12:52:56.458Z,1.40
2023-05-16T12:57:50.772Z,1.70
2023-05-16T13:02:43.718Z,1.70
2023-05-16T13:07:37.247Z,1.60
2023-05-16T13:12:30.066Z,1.50
2023-05-16T13:17:24.078Z,1.70
2023-05-16T13:22:17.095Z,1.70
2023-05-16T13:27:10.016Z,1.70
2023-05-16T13:32:03.085Z,1.60
2023-05-16T13:36:56.168Z,1.90
2023-05-16T13:41:49.708Z,1.90
2023-05-16T13:46:43.362Z,1.80
2023-05-16T13:51:36.601Z,1.70
2023-05-16T13:56:29.889Z,2.10
2023-05-16T14:01:23.471Z,2.00
2023-05-16T14:06:16.354Z,2.00
2023-05-16T14:11:09.290Z,1.90
2023-05-16T14:16:02.550Z,2.30
2023-05-16T14:20:56.674Z,2.00
2023-05-16T14:25:49.663Z,2.10
2023-05-16T14:30:42.480Z,2.60
2023-05-16T14:35:38.474Z,2.40
2023-05-16T14:40:31.453Z,1.90
2023-05-16T14:45:24.365Z,2.60
2023-05-16T14:50:17.498Z,2.70
2023-05-16T14:55:10.388Z,2.20
2023-05-16T15:00:05.707Z,2.50
2023-05-16T15:04:58.640Z,2.50
2023-05-16T15:09:51.644Z,2.10
2023-05-16T15:14:44.908Z,2.00
2023-05-16T15:19:37.939Z,2.40
2023-05-16T15:24:30.919Z,2.10
2023-05-16T15:29:23.764Z,2.20
2023-05-16T15:34:16.637Z,2.30
2023-05-16T15:39:09.544Z,2.50
2023-05-16T15:44:02.374Z,1.90
2023-05-16T15:48:55.226Z,3.00
2023-05-16T15:53:49.060Z,2.20
2023-05-16T15:58:41.867Z,2.90
2023-05-16T16:03:34.879Z,3.50
2023-05-16T16:08:27.839Z,2.00
2023-05-16T16:13:21.376Z,2.20
2023-05-16T16:18:14.799Z,2.00
2023-05-16T16:23:08.363Z,2.40
2023-05-16T16:28:01.229Z,2.40
2023-05-16T16:32:54.184Z,1.90
2023-05-16T16:37:58.318Z,2.30
2023-05-16T16:42:58.957Z,2.10
2023-05-16T16:47:52.576Z,3.40
2023-05-16T16:52:45.682Z,3.00
2023-05-16T16:57:38.532Z,2.50
2023-05-16T17:02:31.462Z,2.50
2023-05-16T17:07:24.298Z,2.60
2023-05-16T17:12:20.557Z,3.10
2023-05-16T17:17:13.625Z,4.80
2023-05-16T17:22:07.758Z,2.90
2023-05-16T17:27:00.615Z,2.90
2023-05-16T17:31:54.699Z,2.70
2023-05-16T17:36:47.546Z,2.90
2023-05-16T17:41:41.210Z,2.50
2023-05-16T17:46:34.990Z,3.40
2023-05-16T17:51:28.277Z,3.20
2023-05-16T17:56:21.174Z,3.70
2023-05-16T18:01:14.428Z,3.70
2023-05-16T18:06:07.529Z,2.90
2023-05-16T18:11:01.031Z,2.80
2023-05-16T18:15:53.968Z,2.80
2023-05-16T18:20:47.369Z,3.30
2023-05-16T18:25:40.203Z,3.40
2023-05-16T18:30:33.155Z,5.20
2023-05-16T18:35:27.790Z,3.30
2023-05-16T18:40:21.606Z,3.50
2023-05-16T18:45:14.514Z,3.70
2023-05-16T18:50:08.545Z,3.20
2023-05-16T18:55:01.611Z,3.40
2023-05-16T18:59:56.181Z,4.40
2023-05-16T19:04:49.114Z,3.20
2023-05-16T19:09:42.169Z,3.90
2023-05-16T19:14:35.037Z,4.20
2023-05-16T19:19:28.004Z,4.20
2023-05-16T19:24:21.035Z,4.80
2023-05-16T19:29:13.945Z,6.00
2023-05-16T19:34:07.166Z,4.60
2023-05-16T19:39:00.155Z,5.50
2023-05-16T19:43:53.253Z,5.50
2023-05-16T19:48:49.711Z,5.40
2023-05-16T19:53:43.054Z,4.80
2023-05-16T19:58:35.917Z,5.50
2023-05-16T20:03:28.930Z,6.00
2023-05-16T20:08:21.974Z,5.80
2023-05-16T20:13:18.717Z,6.30
2023-05-16T20:18:11.688Z,6.70
2023-05-16T20:23:04.924Z,7.70
2023-05-16T20:27:57.928Z,7.90
2023-05-16T20:32:51.096Z,7.90
2023-05-16T20:37:44.125Z,9.20
2023-05-16T20:42:38.172Z,8.10
2023-05-16T20:47:31.289Z,10.00
2023-05-16T20:52:24.525Z,8.60
2023-05-16T20:57:17.858Z,8.20
2023-05-16T21:02:10.967Z,8.50
2023-05-16T21:07:06.801Z,7.90
2023-05-16T21:12:01.600Z,8.10
2023-05-16T21:16:55.627Z,8.20
2023-05-16T21:21:48.733Z,8.70
2023-05-16T21:26:41.743Z,8.30
2023-05-16T21:31:34.622Z,8.20
2023-05-16T21:36:27.538Z,9.20
2023-05-16T21:41:21.755Z,7.90
2023-05-16T21:46:14.793Z,8.90
2023-05-16T21:51:07.694Z,10.40
2023-05-16T21:56:00.566Z,9.50
2023-05-16T22:01:11.889Z,9.70
2023-05-16T22:06:05.148Z,9.40
2023-05-16T22:10:58.008Z,8.20
2023-05-16T22:16:03.281Z,9.40
2023-05-16T22:20:56.758Z,9.60
2023-05-16T22:25:49.737Z,9.10
2023-05-16T22:30:43.181Z,9.30
2023-05-16T22:35:36.096Z,10.10
2023-05-16T22:40:30.968Z,8.70
2023-05-16T22:45:24.312Z,9.10
2023-05-16T22:50:17.325Z,9.40
2023-05-16T22:55:10.413Z,9.50
2023-05-16T23:00:04.723Z,9.30
2023-05-16T23:04:58.635Z,9.20
2023-05-16T23:09:51.662Z,10.40
2023-05-16T23:14:44.527Z,11.60
2023-05-16T23:19:37.444Z,11.50
2023-05-16T23:24:30.344Z,10.30
2023-05-16T23:29:23.194Z,12.70
2023-05-16T23:34:16.047Z,13.00
2023-05-16T23:39:09.227Z,12.90
2023-05-16T23:44:02.105Z,11.70
2023-05-16T23:48:57.315Z,12.30
2023-05-16T23:53:50.258Z,12.70
2023-05-16T23:58:43.134Z,13.20
